createdAt,value
2022-08-22T00:00:11.843Z,3.30
2022-08-22T00:03:11.356Z,3.38
2022-08-22T00:05:37.704Z,3.22
2022-08-22T00:10:57.586Z,3.42
2022-08-22T00:21:47.587Z,3.10
2022-08-22T00:27:09.856Z,3.42
2022-08-22T00:32:15.049Z,3.25
2022-08-22T00:37:35.909Z,3.20
2022-08-22T00:42:57.810Z,3.00
2022-08-22T00:48:18.317Z,2.67
2022-08-22T00:53:44.194Z,3.05
2022-08-22T00:59:27.615Z,3.25
2022-08-22T01:05:07.602Z,3.08
2022-08-22T01:10:24.106Z,3.17
2022-08-22T01:15:29.908Z,3.40
2022-08-22T01:20:46.373Z,3.10
2022-08-22T01:26:19.405Z,3.17
2022-08-22T01:31:21.256Z,3.00
2022-08-22T01:36:53.556Z,3.10
2022-08-22T01:41:58.281Z,3.08
2022-08-22T01:47:13.075Z,3.30
2022-08-22T01:52:31.816Z,3.17
2022-08-22T01:57:55.994Z,3.30
2022-08-22T02:03:26.438Z,3.38
2022-08-22T02:08:37.281Z,3.60
2022-08-22T02:13:56.869Z,3.20
2022-08-22T02:19:23.475Z,3.15
2022-08-22T02:24:29.253Z,3.72
2022-08-22T02:30:24.391Z,2.97
2022-08-22T02:35:31.921Z,3.58
2022-08-22T02:40:45.584Z,3.65
2022-08-22T02:46:05.558Z,3.60
2022-08-22T02:51:30.813Z,4.28
2022-08-22T02:56:44.081Z,4.20
2022-08-22T03:01:47.375Z,3.60
2022-08-22T03:07:20.452Z,3.58
2022-08-22T03:12:25.299Z,3.85
2022-08-22T03:17:33.429Z,4.30
2022-08-22T03:22:51.957Z,4.30
2022-08-22T03:28:00.839Z,3.53
2022-08-22T03:33:23.909Z,3.83
2022-08-22T03:38:34.907Z,4.47
2022-08-22T03:43:57.848Z,4.35
2022-08-22T03:49:13.901Z,4.70
2022-08-22T03:54:38.368Z,4.00
2022-08-22T03:59:56.020Z,4.10
2022-08-22T04:05:26.104Z,4.20
2022-08-22T04:10:37.112Z,4.25
2022-08-22T04:15:48.824Z,4.82
2022-08-22T04:21:08.605Z,3.95
2022-08-22T04:31:22.776Z,4.55
2022-08-22T04:36:45.989Z,5.30
2022-08-22T04:42:11.139Z,4.55
2022-08-22T04:47:36.881Z,4.22
2022-08-22T04:52:56.762Z,8.05
2022-08-22T04:58:26.381Z,5.35
2022-08-22T05:03:29.822Z,4.88
2022-08-22T05:08:35.988Z,5.90
2022-08-22T05:13:48.337Z,5.10
2022-08-22T05:18:54.801Z,5.40
2022-08-22T05:24:10.812Z,4.90
2022-08-22T05:29:16.893Z,5.60
2022-08-22T05:34:27.774Z,5.47
2022-08-22T05:39:31.088Z,5.45
2022-08-22T05:44:36.699Z,6.07
2022-08-22T05:49:58.199Z,5.68
2022-08-22T05:55:10.416Z,5.50
2022-08-22T06:00:19.040Z,5.53
2022-08-22T06:05:30.700Z,5.13
2022-08-22T06:10:49.695Z,5.60
2022-08-22T06:16:05.612Z,5.57
2022-08-22T06:21:12.065Z,5.53
2022-08-22T06:26:20.588Z,6.82
2022-08-22T06:31:36.624Z,6.25
2022-08-22T06:36:41.300Z,5.35
2022-08-22T06:41:59.735Z,6.40
2022-08-22T06:47:05.636Z,6.00
2022-08-22T06:52:16.861Z,5.88
2022-08-22T06:57:48.581Z,4.60
2022-08-22T07:03:01.086Z,4.35
2022-08-22T07:08:09.657Z,4.53
2022-08-22T07:13:19.662Z,4.97
2022-08-22T07:18:24.988Z,3.50
2022-08-22T07:23:38.181Z,3.80
2022-08-22T07:28:58.400Z,2.75
2022-08-22T07:34:10.090Z,3.17
2022-08-22T07:39:26.635Z,3.25
2022-08-22T07:44:38.441Z,3.17
2022-08-22T07:49:49.763Z,2.53
2022-08-22T07:55:10.844Z,3.90
2022-08-22T08:00:17.484Z,2.55
2022-08-22T08:05:22.428Z,3.05
2022-08-22T08:10:31.876Z,1.98
2022-08-22T08:20:37.394Z,2.25
2022-08-22T08:26:03.593Z,2.60
2022-08-22T08:31:17.886Z,2.30
2022-08-22T08:36:40.192Z,2.28
2022-08-22T08:41:51.347Z,2.17
2022-08-22T08:47:15.161Z,2.53
2022-08-22T08:52:41.292Z,2.28
2022-08-22T08:58:06.828Z,2.38
2022-08-22T09:03:15.670Z,2.40
2022-08-22T09:08:38.014Z,2.90
2022-08-22T09:18:59.257Z,2.80
2022-08-22T09:24:47.768Z,2.47
2022-08-22T09:30:27.534Z,2.38
2022-08-22T09:35:56.550Z,1.92
2022-08-22T09:41:19.514Z,2.05
2022-08-22T09:46:32.397Z,1.90
2022-08-22T09:52:05.285Z,2.00
2022-08-22T09:57:22.524Z,2.00
2022-08-22T10:02:34.519Z,3.08
2022-08-22T10:07:47.656Z,2.90
2022-08-22T10:13:16.501Z,2.00
2022-08-22T10:18:18.478Z,2.67
2022-08-22T10:23:41.782Z,2.20
2022-08-22T10:28:56.331Z,2.55
2022-08-22T10:34:16.976Z,1.83
2022-08-22T10:39:30.400Z,1.90
2022-08-22T10:45:36.773Z,2.15
2022-08-22T10:50:51.941Z,1.90
2022-08-22T10:56:21.560Z,2.47
2022-08-22T11:01:37.617Z,2.40
2022-08-22T11:06:54.935Z,2.15
2022-08-22T11:12:35.000Z,2.05
2022-08-22T11:18:04.242Z,2.07
2022-08-22T11:23:24.712Z,2.53
2022-08-22T11:28:48.098Z,2.85
2022-08-22T11:34:03.891Z,2.08
2022-08-22T11:39:28.193Z,1.90
2022-08-22T11:44:36.805Z,2.55
2022-08-22T11:50:13.697Z,2.13
2022-08-22T11:55:34.678Z,2.13
2022-08-22T12:00:56.723Z,1.83
2022-08-22T12:06:31.652Z,2.20
2022-08-22T12:11:45.530Z,1.85
2022-08-22T12:16:58.087Z,2.50
2022-08-22T12:22:23.121Z,2.10
2022-08-22T12:27:55.111Z,2.53
2022-08-22T12:33:10.543Z,1.90
2022-08-22T12:38:37.823Z,2.20
2022-08-22T12:43:49.671Z,1.70
2022-08-22T12:49:21.923Z,1.77
2022-08-22T12:54:39.059Z,2.17
2022-08-22T12:59:45.665Z,1.60
2022-08-22T13:04:58.325Z,1.90
2022-08-22T13:10:03.625Z,1.80
2022-08-22T13:15:28.306Z,1.92
2022-08-22T13:20:41.458Z,1.73
2022-08-22T13:26:33.459Z,2.38
2022-08-22T13:31:41.136Z,1.90
2022-08-22T13:36:51.595Z,2.08
2022-08-22T13:41:58.373Z,1.85
2022-08-22T13:47:21.891Z,1.98
2022-08-22T13:53:02.880Z,2.50
2022-08-22T13:58:15.313Z,2.22
2022-08-22T14:03:25.099Z,1.55
2022-08-22T14:08:35.170Z,2.05
2022-08-22T14:14:03.119Z,2.22
2022-08-22T14:19:12.000Z,2.40
2022-08-22T14:24:45.309Z,2.45
2022-08-22T14:29:56.263Z,2.60
2022-08-22T14:35:17.023Z,2.25
2022-08-22T14:40:33.655Z,2.53
2022-08-22T14:45:46.668Z,2.55
2022-08-22T14:50:53.566Z,2.80
2022-08-22T14:56:05.443Z,2.55
2022-08-22T15:01:11.162Z,2.83
2022-08-22T15:06:32.358Z,2.42
2022-08-22T15:11:37.204Z,2.03
2022-08-22T15:16:57.185Z,2.83
2022-08-22T15:22:25.806Z,2.95
2022-08-22T15:27:31.684Z,2.40
2022-08-22T15:32:41.722Z,2.20
2022-08-22T15:38:06.859Z,2.30
2022-08-22T15:43:26.807Z,2.85
2022-08-22T15:48:39.088Z,2.17
2022-08-22T15:53:44.440Z,4.57
2022-08-22T15:58:52.777Z,2.40
2022-08-22T16:04:01.976Z,2.20
2022-08-22T16:09:04.117Z,2.40
2022-08-22T16:14:45.354Z,2.22
2022-08-22T16:19:47.169Z,2.42
2022-08-22T16:24:57.715Z,2.40
2022-08-22T16:30:09.110Z,2.40
2022-08-22T16:35:10.878Z,2.20
2022-08-22T16:40:19.637Z,2.58
2022-08-22T16:45:24.315Z,2.42
2022-08-22T16:50:33.976Z,1.90
2022-08-22T16:55:42.985Z,2.53
2022-08-22T17:00:48.725Z,2.05
2022-08-22T17:06:17.065Z,2.30
2022-08-22T17:11:26.817Z,2.10
2022-08-22T17:16:39.761Z,2.20
2022-08-22T17:21:57.308Z,2.67
2022-08-22T17:27:22.309Z,2.25
2022-08-22T17:32:33.128Z,2.70
2022-08-22T17:38:15.541Z,2.38
2022-08-22T17:43:48.434Z,2.70
2022-08-22T17:49:16.121Z,2.28
2022-08-22T17:54:21.885Z,3.10
2022-08-22T17:59:47.370Z,2.20
2022-08-22T18:05:16.489Z,2.60
2022-08-22T18:10:27.552Z,2.58
2022-08-22T18:15:38.412Z,2.17
2022-08-22T18:20:56.077Z,3.05
2022-08-22T18:26:07.856Z,2.45
2022-08-22T18:31:45.955Z,2.42
2022-08-22T18:37:07.450Z,2.55
2022-08-22T18:42:19.662Z,2.60
2022-08-22T18:47:31.923Z,2.60
2022-08-22T18:52:36.754Z,3.28
2022-08-22T18:57:57.306Z,2.80
2022-08-22T19:03:11.184Z,2.90
2022-08-22T19:08:15.767Z,2.70
2022-08-22T19:13:48.817Z,2.78
2022-08-22T19:18:59.785Z,2.70
2022-08-22T19:24:02.612Z,2.63
2022-08-22T19:29:16.244Z,2.38
2022-08-22T19:34:28.305Z,2.50
2022-08-22T19:39:42.244Z,2.67
2022-08-22T19:44:59.575Z,2.53
2022-08-22T19:50:08.453Z,2.38
2022-08-22T19:55:28.060Z,2.93
2022-08-22T20:01:00.716Z,2.30
2022-08-22T20:06:44.695Z,2.20
2022-08-22T20:12:15.329Z,2.13
2022-08-22T20:17:24.884Z,2.20
2022-08-22T20:22:38.848Z,2.08
2022-08-22T20:27:44.388Z,1.98
2022-08-22T20:32:50.574Z,2.13
2022-08-22T20:38:07.020Z,3.53
2022-08-22T20:43:35.157Z,2.40
2022-08-22T20:48:42.681Z,2.75
2022-08-22T20:53:55.405Z,2.83
2022-08-22T20:59:00.983Z,2.72
2022-08-22T21:04:04.293Z,2.95
2022-08-22T21:09:51.357Z,3.00
2022-08-22T21:14:53.161Z,3.30
2022-08-22T21:19:58.318Z,3.72
2022-08-22T21:25:01.086Z,3.40
2022-08-22T21:30:07.665Z,3.08
2022-08-22T21:35:24.957Z,3.35
2022-08-22T21:40:37.349Z,3.50
2022-08-22T21:45:39.167Z,3.60
2022-08-22T21:50:41.341Z,3.47
2022-08-22T21:55:44.611Z,3.83
2022-08-22T22:00:57.393Z,3.92
2022-08-22T22:06:01.390Z,3.78
2022-08-22T22:11:08.495Z,3.58
2022-08-22T22:16:14.707Z,3.75
2022-08-22T22:21:17.708Z,3.50
2022-08-22T22:26:20.951Z,3.58
2022-08-22T22:31:22.732Z,3.42
2022-08-22T22:36:26.446Z,4.03
2022-08-22T22:41:28.205Z,3.63
2022-08-22T22:46:30.776Z,3.85
2022-08-22T22:51:32.649Z,3.58
2022-08-22T22:56:34.500Z,3.95
2022-08-22T23:01:37.006Z,3.58
2022-08-22T23:06:38.793Z,3.60
2022-08-22T23:11:40.613Z,3.53
2022-08-22T23:16:44.432Z,3.88
2022-08-22T23:21:47.419Z,3.58
2022-08-22T23:26:49.279Z,4.80
2022-08-22T23:31:52.698Z,4.30
2022-08-22T23:36:57.254Z,4.15
2022-08-22T23:42:00.381Z,4.80
2022-08-22T23:47:02.515Z,4.82
2022-08-22T23:52:05.642Z,4.30
2022-08-22T23:57:12.169Z,4.35
